Time;durP1;ratioP1;P1;durP2;ratioP2;P2;SDS_P1;SDS_P2;PMS_P1;PMS_P2;Temp;Humidity;BMP_temperature;BMP_pressure;BME280_temperature;BME280_humidity;BME280_pressure;Samples;Min_cycle;Max_cycle;Signal;HPM_P1;HPM_P2
2021/11/13 00:00:18;;;;;;;47.00;19.23;;;;;;;2.77;98.31;100121.19;5050331;28;20069;-64
2021/11/13 00:03:04;;;;;;;46.28;18.48;;;;;;;2.79;98.52;100113.13;5049268;28;20055;-69
2021/11/13 00:05:51;;;;;;;42.75;19.05;;;;;;;2.82;98.36;100115.56;5048828;28;20120;-63
2021/11/13 00:08:36;;;;;;;45.47;19.75;;;;;;;2.81;98.29;100111.22;5051239;28;20517;-64
2021/11/13 00:11:21;;;;;;;41.72;17.30;;;;;;;2.85;98.07;100108.28;5052776;28;20072;-69
2021/11/13 00:14:12;;;;;;;50.95;19.90;;;;;;;2.83;97.68;100104.00;5052760;28;20063;-65
2021/11/13 00:16:57;;;;;;;41.25;18.65;;;;;;;2.84;98.95;100108.38;5050767;28;20055;-65
2021/11/13 00:19:42;;;;;;;41.20;17.55;;;;;;;2.87;98.04;100105.53;5048791;28;20055;-67
2021/11/13 00:22:29;;;;;;;44.67;17.33;;;;;;;2.88;97.55;100105.44;5051472;28;20179;-66
2021/11/13 00:25:15;;;;;;;40.15;17.23;;;;;;;2.89;97.93;100112.44;5052607;28;20083;-66
2021/11/13 00:28:00;;;;;;;40.33;17.45;;;;;;;2.87;98.43;100106.38;5051821;28;20056;-67
2021/11/13 00:30:45;;;;;;;46.67;20.77;;;;;;;2.83;97.91;100104.88;5050212;28;20072;-66
2021/11/13 00:33:30;;;;;;;40.45;17.80;;;;;;;2.88;97.81;100100.13;5052170;28;20472;-65
2021/11/13 00:36:15;;;;;;;40.80;18.05;;;;;;;2.89;97.74;100093.88;5046747;28;20056;-64
2021/11/13 00:39:01;;;;;;;42.40;18.10;;;;;;;2.80;98.35;100094.47;5049416;28;20569;-67
2021/11/13 00:41:46;;;;;;;36.80;17.75;;;;;;;2.83;97.94;100082.81;5051239;28;20137;-67
2021/11/13 00:44:33;;;;;;;39.17;18.80;;;;;;;2.81;97.18;100090.88;5051699;28;20514;-67
2021/11/13 00:47:19;;;;;;;42.95;18.35;;;;;;;2.84;97.49;100092.47;5050495;28;20333;-67
2021/11/13 00:50:06;;;;;;;37.00;17.20;;;;;;;2.87;97.12;100105.53;5046425;28;20063;-66
2021/11/13 00:52:52;;;;;;;38.58;17.15;;;;;;;2.83;97.21;100098.72;5045868;28;20052;-69
2021/11/13 00:55:38;;;;;;;41.53;17.85;;;;;;;2.81;97.22;100111.22;5050405;28;20498;-67
2021/11/13 00:58:23;;;;;;;38.15;17.35;;;;;;;2.85;96.85;100097.69;5052064;28;20059;-68
2021/11/13 01:01:08;;;;;;;41.28;18.85;;;;;;;2.86;97.30;100098.53;5051393;28;20596;-66
2021/11/13 01:03:53;;;;;;;37.65;18.08;;;;;;;2.89;97.35;100093.03;5049016;28;20048;-67
2021/11/13 01:06:39;;;;;;;43.60;19.05;;;;;;;2.86;97.41;100101.19;5050032;28;20521;-65
2021/11/13 01:09:24;;;;;;;32.45;15.98;;;;;;;2.91;97.01;100102.56;5049940;28;20178;-68
2021/11/13 01:12:11;;;;;;;35.53;16.63;;;;;;;3.03;96.11;100105.38;5044451;28;20064;-68
2021/11/13 01:14:55;;;;;;;42.25;17.50;;;;;;;2.97;95.73;100104.00;5050059;28;20051;-68
2021/11/13 01:17:41;;;;;;;41.88;17.65;;;;;;;3.10;95.67;100101.41;5048579;28;20056;-68
2021/11/13 01:20:29;;;;;;;41.67;19.73;;;;;;;3.09;94.83;100097.06;5045602;28;20097;-67
2021/11/13 01:23:14;;;;;;;41.08;18.42;;;;;;;2.96;96.30;100086.41;5050678;28;20526;-67
2021/11/13 01:26:00;;;;;;;47.65;18.42;;;;;;;3.01;95.18;100091.38;5049769;28;20414;-67
2021/11/13 01:28:46;;;;;;;39.92;18.52;;;;;;;2.88;95.23;100092.19;5051657;28;20063;-67
2021/11/13 01:31:32;;;;;;;41.10;19.05;;;;;;;2.90;95.48;100086.78;5045509;28;20055;-67
2021/11/13 01:34:17;;;;;;;38.15;17.38;;;;;;;2.88;96.04;100080.72;5049238;28;20090;-66
2021/11/13 01:37:02;;;;;;;37.92;17.42;;;;;;;2.82;95.32;100087.25;5049610;28;20060;-66
2021/11/13 01:39:48;;;;;;;33.95;15.88;;;;;;;2.89;95.07;100077.13;5050516;28;20427;-68
2021/11/13 01:42:34;;;;;;;30.87;14.67;;;;;;;2.85;95.04;100071.19;5057225;28;20075;-67
2021/11/13 01:45:20;;;;;;;29.60;14.43;;;;;;;2.91;94.48;100076.06;5037314;28;20298;-68
2021/11/13 01:48:06;;;;;;;25.27;13.70;;;;;;;2.91;94.79;100064.63;5044202;28;20056;-67
2021/11/13 01:50:50;;;;;;;36.08;15.32;;;;;;;2.81;93.77;100058.22;5050388;28;20370;-68
2021/11/13 01:53:35;;;;;;;39.10;15.57;;;;;;;2.76;94.21;100053.22;5050166;28;20094;-66
2021/11/13 01:56:21;;;;;;;29.25;14.10;;;;;;;2.77;95.31;100054.06;5048872;28;20056;-67
2021/11/13 01:59:07;;;;;;;34.28;15.10;;;;;;;2.77;94.72;100064.66;5049261;28;20075;-68
2021/11/13 02:01:53;;;;;;;;;;;;;;;2.81;95.21;100069.66;5049894;28;20099;-67
2021/11/13 02:04:38;;;;;;;28.40;12.90;;;;;;;2.83;94.66;100061.59;5050427;28;19928;-68
2021/11/13 02:07:23;;;;;;;31.25;14.82;;;;;;;2.79;95.11;100071.56;5050665;28;20391;-68
2021/11/13 02:10:10;;;;;;;36.30;15.15;;;;;;;2.93;94.44;100060.06;5043246;28;20151;-67
2021/11/13 02:12:56;;;;;;;32.88;16.00;;;;;;;2.89;93.90;100059.41;5050346;28;20055;-66
2021/11/13 02:15:41;;;;;;;29.30;13.83;;;;;;;2.89;94.58;100056.78;5047426;28;20052;-68
2021/11/13 02:18:27;;;;;;;30.63;13.95;;;;;;;2.97;94.18;100048.31;5048043;28;20064;-68
2021/11/13 02:21:15;;;;;;;28.63;13.77;;;;;;;2.97;93.77;100043.03;5047974;28;20149;-66
2021/11/13 02:24:00;;;;;;;31.67;15.65;;;;;;;2.85;94.12;100054.44;5047270;28;20131;-68
2021/11/13 02:26:45;;;;;;;38.65;15.60;;;;;;;2.84;93.93;100052.69;5047282;28;20091;-66
2021/11/13 02:29:30;;;;;;;32.25;15.40;;;;;;;2.75;95.14;100051.53;5040993;28;20083;-66
2021/11/13 02:32:15;;;;;;;35.63;17.45;;;;;;;2.73;94.62;100052.56;5050455;28;20060;-67
2021/11/13 02:35:00;;;;;;;38.92;18.85;;;;;;;2.78;94.81;100047.81;5042730;28;20056;-66
2021/11/13 02:37:47;;;;;;;39.88;17.50;;;;;;;2.72;95.17;100045.53;5049390;28;20063;-68
2021/11/13 02:40:32;;;;;;;33.83;15.85;;;;;;;2.75;95.10;100034.78;5041530;28;20056;-67
2021/11/13 02:43:18;;;;;;;41.75;17.77;;;;;;;2.71;95.78;100047.34;5045534;28;20059;-66
2021/11/13 02:46:06;;;;;;;38.25;18.05;;;;;;;2.74;95.38;100035.72;5047246;28;20075;-66
2021/11/13 02:48:51;;;;;;;44.20;17.17;;;;;;;2.76;95.00;100024.06;5048385;28;20195;-66
2021/11/13 02:51:37;;;;;;;35.50;16.92;;;;;;;2.80;95.98;100030.00;5048708;28;20472;-68
2021/11/13 02:54:23;;;;;;;43.38;17.85;;;;;;;2.76;94.77;100039.13;5050285;28;20517;-67
2021/11/13 02:57:08;;;;;;;34.63;16.35;;;;;;;2.81;94.98;100039.66;5050052;28;20155;-69
2021/11/13 02:59:53;;;;;;;35.88;16.85;;;;;;;2.70;95.01;100021.78;5048584;28;20617;-66
2021/11/13 03:02:39;;;;;;;38.88;18.27;;;;;;;2.71;94.64;100014.69;5049201;28;20194;-68
2021/11/13 03:05:27;;;;;;;39.67;16.42;;;;;;;2.71;95.28;100023.50;5042159;28;20106;-66
2021/11/13 03:08:12;;;;;;;34.38;16.30;;;;;;;2.71;95.34;100012.03;5047900;28;20059;-66
2021/11/13 03:11:01;;;;;;;36.40;16.52;;;;;;;2.70;94.76;100013.00;5046932;28;20521;-67
2021/11/13 03:13:47;;;;;;;39.05;16.33;;;;;;;2.62;94.35;100001.13;5044721;28;20056;-68
2021/11/13 03:16:32;;;;;;;35.97;15.20;;;;;;;2.59;94.77;99996.00;5049220;28;20446;-68
2021/11/13 03:19:17;;;;;;;35.50;16.00;;;;;;;2.56;94.39;99998.00;5048281;28;20618;-62
2021/11/13 03:22:02;;;;;;;42.00;16.20;;;;;;;2.56;94.99;99990.91;5049419;28;20059;-69
2021/11/13 03:24:47;;;;;;;35.05;16.20;;;;;;;2.51;95.53;99984.22;5044051;28;20124;-66
2021/11/13 03:27:35;;;;;;;32.53;15.35;;;;;;;2.51;95.78;99986.88;5048515;28;20091;-68
2021/11/13 03:30:22;;;;;;;30.30;15.98;;;;;;;2.48;94.88;99982.59;5049449;28;20063;-67
2021/11/13 03:33:08;;;;;;;35.03;16.08;;;;;;;2.45;95.44;99977.50;5044241;28;20060;-65
2021/11/13 03:35:54;;;;;;;35.50;17.02;;;;;;;2.40;95.50;99974.31;5049417;28;20043;-67
2021/11/13 03:38:40;;;;;;;36.67;16.87;;;;;;;2.42;95.92;99972.41;5048510;28;20191;-68
2021/11/13 03:41:25;;;;;;;;;;;;;;;2.34;95.91;99978.19;5052115;28;20195;-67
2021/11/13 03:44:12;;;;;;;36.05;16.10;;;;;;;2.33;96.39;99983.59;5046571;28;19928;-66
2021/11/13 03:46:57;;;;;;;38.78;17.67;;;;;;;2.31;95.88;99974.91;5052360;28;20051;-65
2021/11/13 03:49:42;;;;;;;34.55;16.02;;;;;;;2.30;96.32;99979.34;5050388;28;20124;-68
2021/11/13 03:52:27;;;;;;;36.10;16.67;;;;;;;2.30;96.06;99986.44;5050644;28;20056;-68
2021/11/13 03:55:12;;;;;;;38.20;16.20;;;;;;;2.26;96.25;99983.16;5052335;28;20056;-67
2021/11/13 03:57:58;;;;;;;38.13;15.95;;;;;;;2.28;96.23;99985.69;5046137;28;20055;-67
2021/11/13 04:00:44;;;;;;;34.45;15.98;;;;;;;2.25;96.17;99997.34;5051687;28;20134;-66
2021/11/13 04:03:29;;;;;;;31.90;14.15;;;;;;;2.27;96.12;100000.72;5051592;28;20520;-67
2021/11/13 04:06:14;;;;;;;26.42;13.90;;;;;;;2.31;96.27;100007.53;5046497;28;20186;-67
2021/11/13 04:08:59;;;;;;;34.38;16.45;;;;;;;2.26;96.32;100003.47;5052897;28;20048;-69
2021/11/13 04:11:44;;;;;;;33.10;14.93;;;;;;;2.26;96.20;100003.47;5051308;28;20052;-66
2021/11/13 04:14:29;;;;;;;36.28;15.55;;;;;;;2.31;96.02;99999.59;5050414;28;20060;-67
2021/11/13 04:17:16;;;;;;;35.20;14.52;;;;;;;2.33;95.58;100010.06;5050165;28;20134;-64
2021/11/13 04:20:01;;;;;;;37.60;15.13;;;;;;;2.35;95.48;100013.47;5048293;28;20052;-66
2021/11/13 04:22:48;;;;;;;32.38;15.65;;;;;;;2.43;94.10;100016.50;5051935;28;20048;-66
2021/11/13 04:25:34;;;;;;;32.17;14.98;;;;;;;2.44;93.97;100010.25;5051500;28;20191;-65
2021/11/13 04:28:19;;;;;;;31.80;13.95;;;;;;;2.54;93.53;100011.34;5048726;28;20055;-63
2021/11/13 04:31:04;;;;;;;32.53;13.98;;;;;;;2.44;94.56;100010.25;5052882;28;20052;-67
2021/11/13 04:33:55;;;;;;;31.95;14.65;;;;;;;2.50;93.92;100014.31;5050545;28;20056;-65
2021/11/13 04:36:44;;;;;;;35.03;14.82;;;;;;;2.39;94.42;100011.50;5048893;28;20163;-68
2021/11/13 04:42:04;;;;;;;27.75;14.30;;;;;;;2.34;94.41;100014.41;4969868;28;20058;-63
2021/11/13 04:44:51;;;;;;;26.77;12.70;;;;;;;2.37;95.18;100011.59;4972666;28;20139;-63
2021/11/13 04:47:36;;;;;;;26.55;13.90;;;;;;;2.41;94.67;100009.59;4971269;28;20057;-64
2021/11/13 04:50:24;;;;;;;25.25;12.45;;;;;;;2.43;94.73;100005.88;4973382;28;20149;-64
2021/11/13 04:53:10;;;;;;;25.75;12.35;;;;;;;2.46;94.54;100005.69;4973501;28;20066;-64
2021/11/13 04:55:55;;;;;;;27.15;13.18;;;;;;;2.47;94.36;100006.53;4970862;28;20050;-62
2021/11/13 04:58:40;;;;;;;27.48;13.77;;;;;;;2.51;95.18;100002.75;4971829;28;20113;-62
2021/11/13 05:01:25;;;;;;;26.00;13.70;;;;;;;2.52;94.48;100007.97;4972883;28;20082;-62
2021/11/13 05:04:10;;;;;;;27.42;13.70;;;;;;;2.55;94.70;100005.09;4962020;28;20058;-64
2021/11/13 05:06:56;;;;;;;23.50;11.00;;;;;;;2.56;94.50;100009.44;4970938;28;20247;-62
2021/11/13 05:09:41;;;;;;;24.63;12.75;;;;;;;2.57;93.77;100008.50;4974524;28;20523;-62
2021/11/13 05:12:26;;;;;;;24.98;12.07;;;;;;;2.54;94.58;99998.09;4974461;28;20070;-63
2021/11/13 05:15:12;;;;;;;28.52;13.45;;;;;;;2.54;93.94;100003.41;4974511;28;20073;-64
2021/11/13 05:17:57;;;;;;;22.73;11.32;;;;;;;2.52;93.65;100002.66;4970627;28;20062;-63
2021/11/13 05:20:42;;;;;;;25.30;11.30;;;;;;;2.53;93.73;100001.69;4969454;28;20062;-65
2021/11/13 05:23:28;;;;;;;29.00;12.37;;;;;;;2.52;93.34;100001.81;4969403;28;20061;-63
2021/11/13 05:26:14;;;;;;;27.63;10.90;;;;;;;2.53;93.98;99998.22;4971629;28;20309;-64
2021/11/13 05:28:58;;;;;;;23.42;11.57;;;;;;;2.55;93.33;100001.59;4971450;28;20113;-62
2021/11/13 05:31:44;;;;;;;20.92;9.98;;;;;;;2.61;93.51;99999.41;4972069;28;20065;-63
2021/11/13 05:34:29;;;;;;;20.58;11.20;;;;;;;2.62;92.51;99998.47;4970756;28;20057;-62
2021/11/13 05:37:14;;;;;;;20.53;9.67;;;;;;;2.63;92.70;100005.47;4971672;28;20054;-64
2021/11/13 05:40:01;;;;;;;16.77;8.43;;;;;;;2.67;92.67;100008.75;4970198;28;20070;-63
2021/11/13 05:42:47;;;;;;;19.75;9.68;;;;;;;2.85;91.81;100014.66;4975584;28;20405;-63
2021/11/13 05:45:32;;;;;;;16.77;8.90;;;;;;;2.89;90.83;100008.19;4966411;28;20061;-64
2021/11/13 05:48:18;;;;;;;18.80;9.68;;;;;;;2.83;91.11;100005.94;4971035;28;20062;-63
2021/11/13 05:51:03;;;;;;;18.40;9.05;;;;;;;2.79;91.59;100007.09;4970183;28;20053;-63
2021/11/13 05:53:48;;;;;;;22.27;10.93;;;;;;;2.72;91.16;100009.28;4971761;28;20053;-66
2021/11/13 05:56:34;;;;;;;19.02;10.27;;;;;;;2.74;91.71;100017.16;4971142;28;20058;-64
2021/11/13 05:59:19;;;;;;;16.17;9.43;;;;;;;2.78;91.66;100021.31;4966398;28;20537;-66
2021/11/13 06:02:04;;;;;;;15.88;8.13;;;;;;;2.79;91.84;100017.72;4968612;28;20061;-64
2021/11/13 06:04:50;;;;;;;21.15;11.38;;;;;;;2.78;91.63;100024.81;4955001;28;20436;-62
2021/11/13 06:07:36;;;;;;;17.55;8.10;;;;;;;2.79;92.14;100026.50;4970547;28;20050;-61
2021/11/13 06:10:21;;;;;;;17.30;9.30;;;;;;;2.79;92.66;100029.16;4968381;28;20564;-65
2021/11/13 06:13:08;;;;;;;39.80;17.27;;;;;;;2.83;91.91;100037.75;4971382;28;20061;-64
2021/11/13 06:15:52;;;;;;;21.15;12.10;;;;;;;2.86;91.22;100037.56;4971815;28;20404;-65
2021/11/13 06:18:38;;;;;;;19.70;10.40;;;;;;;2.85;91.21;100039.38;4972302;28;20125;-62
2021/11/13 06:21:23;;;;;;;29.30;14.50;;;;;;;2.82;91.52;100036.06;4968364;28;20422;-64
2021/11/13 06:24:10;;;;;;;86.90;32.00;;;;;;;2.80;92.21;100037.97;4970496;28;20425;-63
2021/11/13 06:26:56;;;;;;;52.65;19.55;;;;;;;2.81;92.47;100034.34;4971855;28;20129;-63
2021/11/13 06:29:42;;;;;;;32.70;15.57;;;;;;;2.82;92.93;100044.00;4965343;28;20161;-62
2021/11/13 06:32:27;;;;;;;30.08;14.00;;;;;;;2.86;92.34;100048.19;4970206;28;20133;-63
2021/11/13 06:35:14;;;;;;;22.48;10.50;;;;;;;2.90;92.65;100053.16;4971817;28;20089;-63
2021/11/13 06:37:59;;;;;;;17.08;9.65;;;;;;;2.93;92.34;100057.41;4969074;28;20129;-64
2021/11/13 06:40:44;;;;;;;16.70;8.70;;;;;;;2.93;92.11;100062.72;4967280;28;20575;-63
2021/11/13 06:43:29;;;;;;;16.70;8.93;;;;;;;2.90;91.47;100052.31;4967486;28;20077;-66
2021/11/13 06:46:15;;;;;;;20.67;9.70;;;;;;;2.92;91.98;100050.41;4970734;28;20552;-63
2021/11/13 06:49:00;;;;;;;18.25;8.93;;;;;;;2.93;91.77;100050.31;4971033;28;20057;-63
2021/11/13 06:51:46;;;;;;;16.55;9.15;;;;;;;2.98;91.71;100047.38;4969367;28;20069;-64
2021/11/13 06:54:31;;;;;;;14.73;8.68;;;;;;;3.03;91.37;100057.66;4971053;28;20053;-63
2021/11/13 06:57:16;;;;;;;13.48;8.35;;;;;;;3.05;91.29;100056.59;4970373;28;20473;-63
2021/11/13 07:00:03;;;;;;;18.17;8.97;;;;;;;3.09;91.15;100058.13;4965414;28;20182;-63
2021/11/13 07:02:50;;;;;;;15.13;8.10;;;;;;;3.10;91.23;100067.78;4963634;28;20057;-63
2021/11/13 07:05:35;;;;;;;16.60;8.63;;;;;;;3.15;90.35;100055.06;4970603;28;20057;-63
2021/11/13 07:08:20;;;;;;;16.48;8.23;;;;;;;3.18;90.66;100051.34;4969007;28;20468;-63
2021/11/13 07:11:05;;;;;;;16.00;8.48;;;;;;;3.25;90.20;100052.63;4969978;28;20057;-62
2021/11/13 07:13:51;;;;;;;16.15;7.65;;;;;;;3.28;89.16;100040.97;4971504;28;20057;-63
2021/11/13 07:16:35;;;;;;;15.05;7.03;;;;;;;3.38;89.49;100044.72;4972307;28;20077;-63
2021/11/13 07:19:22;;;;;;;15.18;8.65;;;;;;;3.44;89.48;100047.81;4968718;28;20062;-61
2021/11/13 07:22:07;;;;;;;;;;;;;;;3.68;88.25;100049.75;4975372;28;20057;-62
2021/11/13 07:24:52;;;;;;;14.13;7.28;;;;;;;3.64;87.49;100048.25;4970682;28;20316;-63
2021/11/13 07:27:36;;;;;;;13.35;7.70;;;;;;;3.69;86.88;100052.28;4972987;28;20054;-63
2021/11/13 07:30:24;;;;;;;17.05;7.93;;;;;;;3.63;88.14;100054.50;4974147;28;20185;-64
2021/11/13 07:33:10;;;;;;;13.52;7.43;;;;;;;3.62;87.58;100051.00;4973094;28;20058;-62
2021/11/13 07:35:56;;;;;;;13.38;7.60;;;;;;;3.62;87.65;100052.81;4972466;28;20637;-62
2021/11/13 07:38:42;;;;;;;15.02;8.23;;;;;;;3.62;88.29;100052.81;4973832;28;20062;-65
2021/11/13 07:41:27;;;;;;;14.87;8.20;;;;;;;3.71;87.45;100049.53;4976924;28;20465;-64
2021/11/13 07:44:12;;;;;;;14.67;7.77;;;;;;;3.72;87.37;100049.41;4971737;28;20129;-63
2021/11/13 07:46:57;;;;;;;15.95;8.52;;;;;;;3.71;86.93;100054.84;4973654;28;20144;-61
2021/11/13 07:49:43;;;;;;;15.15;7.78;;;;;;;3.75;87.19;100056.31;4966887;28;20057;-62
2021/11/13 07:52:29;;;;;;;16.50;8.38;;;;;;;3.75;87.47;100069.59;4970147;28;20062;-63
2021/11/13 07:55:17;;;;;;;76.00;33.42;;;;;;;3.83;87.24;100059.31;4974337;28;20073;-62
2021/11/13 07:58:03;;;;;;;15.38;8.05;;;;;;;3.89;86.77;100082.75;4972830;28;20054;-63
2021/11/13 08:00:50;;;;;;;13.30;7.10;;;;;;;4.08;85.29;100074.38;4959786;28;20149;-64
2021/11/13 08:03:35;;;;;;;14.93;7.13;;;;;;;4.11;85.10;100069.69;4969453;28;20589;-61
2021/11/13 08:06:19;;;;;;;12.32;6.72;;;;;;;4.21;84.09;100085.00;4966631;28;20061;-64
2021/11/13 08:09:06;;;;;;;13.95;6.72;;;;;;;4.52;82.63;100073.06;4966837;28;20058;-64
2021/11/13 08:11:51;;;;;;;16.42;8.77;;;;;;;4.51;82.15;100068.72;4968346;28;20069;-64
2021/11/13 08:14:36;;;;;;;10.13;6.32;;;;;;;4.53;82.48;100070.28;4967494;28;20077;-62
2021/11/13 08:17:20;;;;;;;12.02;6.28;;;;;;;4.58;82.40;100084.09;4966303;28;20070;-63
2021/11/13 08:20:07;;;;;;;11.77;6.82;;;;;;;4.73;80.99;100082.13;4968161;28;20101;-63
2021/11/13 08:22:52;;;;;;;10.65;6.03;;;;;;;4.72;80.77;100080.44;4966782;28;20059;-63
2021/11/13 08:25:40;;;;;;;11.75;5.82;;;;;;;4.76;81.77;100067.78;4968735;28;20057;-64
2021/11/13 08:28:25;;;;;;;13.18;6.22;;;;;;;4.82;82.34;100078.81;4969189;28;20066;-62
2021/11/13 08:31:11;;;;;;;9.50;5.83;;;;;;;4.88;81.60;100081.03;4969734;28;20062;-63
2021/11/13 08:33:55;;;;;;;12.05;5.47;;;;;;;4.82;82.73;100088.59;4967962;28;20065;-67
2021/11/13 08:36:40;;;;;;;10.90;5.70;;;;;;;4.91;80.70;100085.28;4967565;28;20058;-64
2021/11/13 08:39:27;;;;;;;11.07;6.03;;;;;;;5.03;80.24;100095.00;4970834;28;20077;-63
2021/11/13 08:42:14;;;;;;;11.07;5.90;;;;;;;5.05;80.42;100086.91;4964864;28;20062;-63
2021/11/13 08:44:59;;;;;;;15.05;5.50;;;;;;;5.04;81.50;100095.88;4967829;28;20054;-63
2021/11/13 08:47:45;;;;;;;9.93;5.50;;;;;;;5.10;81.15;100098.94;4967343;28;20049;-62
2021/11/13 08:50:31;;;;;;;10.25;5.75;;;;;;;5.17;81.63;100088.66;4968060;28;20054;-63
2021/11/13 08:53:16;;;;;;;11.70;6.43;;;;;;;5.23;79.71;100093.56;4966387;28;20101;-62
2021/11/13 08:56:02;;;;;;;14.00;6.65;;;;;;;5.38;79.29;100100.38;4967914;28;20508;-63
2021/11/13 08:58:49;;;;;;;10.47;5.50;;;;;;;5.52;78.99;100108.19;4968556;28;20067;-63
2021/11/13 09:01:34;;;;;;;10.27;5.15;;;;;;;5.63;77.62;100106.53;4966953;28;20096;-62
2021/11/13 09:04:19;;;;;;;11.73;6.35;;;;;;;5.70;77.54;100115.75;4968593;28;20062;-63
2021/11/13 09:07:07;;;;;;;9.80;5.60;;;;;;;5.89;77.72;100108.03;4966190;28;20140;-63
2021/11/13 09:09:53;;;;;;;10.73;5.82;;;;;;;6.05;76.77;100105.94;4967745;28;20803;-62
2021/11/13 09:12:38;;;;;;;10.68;5.30;;;;;;;6.19;75.45;100104.03;4967128;28;20062;-62
2021/11/13 09:15:28;;;;;;;8.95;5.43;;;;;;;6.13;76.30;100105.34;4967655;28;20066;-63
2021/11/13 09:18:14;;;;;;;11.18;5.68;;;;;;;5.99;76.18;100101.09;4966606;28;20050;-61
2021/11/13 09:20:59;;;;;;;10.52;5.78;;;;;;;5.87;76.35;100102.00;4967743;28;20065;-64
2021/11/13 09:23:45;;;;;;;13.02;6.03;;;;;;;5.87;75.78;100097.50;4964473;28;20058;-62
2021/11/13 09:26:31;;;;;;;13.38;6.43;;;;;;;5.92;77.39;100104.31;4968385;28;20073;-62
2021/11/13 09:29:17;;;;;;;10.10;5.65;;;;;;;6.09;75.80;100102.06;4964304;28;20116;-60
2021/11/13 09:32:04;;;;;;;;;;;;;;;6.21;75.76;100100.28;4967709;28;20192;-63
2021/11/13 09:34:49;;;;;;;9.23;5.70;;;;;;;6.30;76.02;100096.03;4966254;28;20011;-62
2021/11/13 09:37:34;;;;;;;9.80;5.25;;;;;;;6.30;76.04;100104.88;4965244;28;20061;-63
2021/11/13 09:40:21;;;;;;;10.45;5.55;;;;;;;6.38;74.89;100098.94;4967263;28;20421;-63
2021/11/13 09:43:08;;;;;;;10.75;5.35;;;;;;;6.62;75.58;100106.81;4966707;28;20062;-63
2021/11/13 09:45:56;;;;;;;10.98;5.88;;;;;;;6.72;74.49;100111.28;4966876;28;20165;-63
2021/11/13 09:48:42;;;;;;;10.40;5.93;;;;;;;6.93;73.76;100098.03;4966712;28;20058;-62
2021/11/13 09:51:29;;;;;;;10.93;6.15;;;;;;;7.04;73.70;100102.50;4966699;28;20050;-62
2021/11/13 09:54:15;;;;;;;12.35;5.72;;;;;;;7.00;73.10;100093.06;4967014;28;20065;-65
2021/11/13 09:57:00;;;;;;;;;;;;;;;7.01;73.74;100097.44;4966801;28;20054;-64
2021/11/13 09:59:45;;;;;;;14.68;6.22;;;;;;;7.03;73.25;100092.81;4964168;28;19972;-62
2021/11/13 10:02:30;;;;;;;10.82;5.85;;;;;;;6.84;74.72;100085.44;4963804;28;20170;-65
2021/11/13 10:05:17;;;;;;;10.68;5.90;;;;;;;6.96;72.89;100084.44;4967143;28;20416;-63
2021/11/13 10:08:04;;;;;;;12.70;6.35;;;;;;;7.01;73.84;100090.28;4964690;28;20434;-61
2021/11/13 10:10:53;;;;;;;22.48;6.75;;;;;;;6.86;73.41;100080.81;4968081;28;20064;-63
2021/11/13 10:13:43;;;;;;;9.35;6.18;;;;;;;6.85;74.24;100087.13;4966091;28;20055;-63
2021/11/13 10:16:34;;;;;;;10.45;6.03;;;;;;;7.03;74.24;100082.97;4965778;28;20081;-63
2021/11/13 10:19:20;;;;;;;11.57;6.50;;;;;;;7.19;74.01;100073.72;4967193;28;20113;-61
2021/11/13 10:22:07;;;;;;;14.77;7.25;;;;;;;7.50;73.32;100070.19;4967236;28;20206;-64
2021/11/13 10:24:54;;;;;;;13.45;6.35;;;;;;;7.66;71.48;100064.41;4963749;28;20120;-63
2021/11/13 10:27:39;;;;;;;12.05;6.57;;;;;;;7.56;71.57;100063.47;4964546;28;20129;-65
2021/11/13 10:30:24;;;;;;;10.32;5.90;;;;;;;7.84;71.06;100062.00;4965132;28;20129;-62
2021/11/13 10:33:09;;;;;;;11.13;6.43;;;;;;;8.07;70.57;100068.03;4970361;28;20511;-61
2021/11/13 10:35:54;;;;;;;11.85;6.63;;;;;;;8.27;70.09;100063.63;4965237;28;20717;-64
2021/11/13 10:38:44;;;;;;;11.23;6.35;;;;;;;8.24;69.85;100062.06;4964849;28;20121;-62
2021/11/13 10:41:29;;;;;;;10.40;6.25;;;;;;;8.28;69.96;100058.13;5084679;22;20426;-65
2021/11/13 10:44:16;;;;;;;12.27;6.57;;;;;;;8.21;69.58;100065.00;5004763;28;20072;-66
2021/11/13 10:47:08;;;;;;;9.73;6.05;;;;;;;8.37;69.84;100057.38;5005592;28;20132;-65
2021/11/13 10:49:54;;;;;;;11.82;5.35;;;;;;;8.70;69.44;100056.22;5002096;28;20065;-64
2021/11/13 10:52:39;;;;;;;12.07;6.10;;;;;;;8.93;68.52;100061.34;4990392;28;20092;-65
2021/11/13 10:55:26;;;;;;;8.57;5.03;;;;;;;9.13;68.24;100059.56;4988873;28;20065;-64
2021/11/13 10:58:26;;;;;;;8.98;5.28;;;;;;;9.28;67.84;100055.47;4988988;28;20053;-66
2021/11/13 11:01:29;;;;;;;10.15;5.65;;;;;;;9.18;67.42;100049.25;4988758;28;20069;-64
2021/11/13 11:04:17;;;;;;;8.65;5.47;;;;;;;9.02;67.08;100050.66;4989662;28;20057;-66
2021/11/13 11:07:06;;;;;;;12.10;6.70;;;;;;;8.96;67.24;100048.53;4988477;28;20092;-66
2021/11/13 11:09:59;;;;;;;9.25;6.07;;;;;;;9.24;67.74;100046.03;4988856;28;20053;-65
2021/11/13 11:12:47;;;;;;;10.48;5.82;;;;;;;9.28;66.68;100044.75;4989208;28;20068;-66
2021/11/13 11:15:40;;;;;;;12.10;5.55;;;;;;;9.43;67.43;100045.19;4987959;28;20425;-65
2021/11/13 11:18:25;;;;;;;11.05;5.75;;;;;;;9.63;67.88;100038.81;4988218;28;20430;-66
2021/11/13 11:21:10;;;;;;;8.60;4.60;;;;;;;9.94;66.12;100034.09;4985358;28;20061;-64
2021/11/13 11:24:08;;;;;;;6.90;4.22;;;;;;;10.38;66.69;100035.25;4989381;28;20061;-65
2021/11/13 11:27:00;;;;;;;9.57;5.28;;;;;;;10.25;65.49;100040.94;4988679;28;20073;-65
2021/11/13 11:29:51;;;;;;;8.88;5.32;;;;;;;10.24;64.93;100039.25;4987876;28;20053;-65
2021/11/13 11:32:38;;;;;;;11.73;5.68;;;;;;;10.32;64.63;100048.41;4988487;28;20553;-63
2021/11/13 11:35:28;;;;;;;9.55;4.70;;;;;;;10.33;64.30;100032.19;4987978;28;20061;-64
2021/11/13 11:38:14;;;;;;;9.68;5.15;;;;;;;10.17;64.83;100035.44;4986799;28;20136;-64
2021/11/13 11:41:01;;;;;;;12.40;6.18;;;;;;;9.93;66.40;100035.09;4993786;28;20188;-65
2021/11/13 11:43:46;;;;;;;8.75;5.10;;;;;;;9.94;66.68;100034.09;4988710;28;20065;-65
2021/11/13 11:46:32;;;;;;;8.40;4.78;;;;;;;10.37;66.85;100032.72;4988500;28;20057;-65
2021/11/13 11:49:18;;;;;;;9.38;5.32;;;;;;;10.41;64.64;100029.56;4985685;28;20140;-66
2021/11/13 11:52:03;;;;;;;10.48;5.00;;;;;;;10.35;65.95;100037.38;4987367;28;20057;-66
2021/11/13 11:54:50;;;;;;;9.27;5.50;;;;;;;10.38;65.54;100035.25;4988398;28;20057;-65
2021/11/13 11:57:37;;;;;;;12.43;5.63;;;;;;;10.31;65.56;100038.69;4987439;28;20062;-64
2021/11/13 12:00:25;;;;;;;9.65;5.25;;;;;;;10.17;65.72;100035.44;4988978;28;20057;-66
2021/11/13 12:03:22;;;;;;;8.75;4.60;;;;;;;10.40;65.65;100019.84;4986699;28;20053;-65
2021/11/13 12:06:07;;;;;;;11.48;5.38;;;;;;;10.22;65.97;100027.00;4985406;28;20061;-64
2021/11/13 12:09:02;;;;;;;8.70;4.65;;;;;;;10.19;66.62;100028.09;4989120;28;20057;-66
2021/11/13 12:11:48;;;;;;;6.95;3.92;;;;;;;10.29;67.12;100020.03;4986634;28;20527;-65
2021/11/13 12:14:35;;;;;;;7.68;4.63;;;;;;;10.25;67.57;100029.38;4988921;28;20069;-66
2021/11/13 12:17:30;;;;;;;9.60;5.38;;;;;;;9.99;67.34;100029.16;4985765;28;20198;-65
2021/11/13 12:20:26;;;;;;;9.55;4.72;;;;;;;9.90;67.08;100024.66;4984484;28;20073;-65
2021/11/13 12:23:28;;;;;;;7.22;4.05;;;;;;;9.53;68.15;100030.78;4987216;28;20053;-64
2021/11/13 12:26:19;;;;;;;9.57;4.95;;;;;;;9.48;68.78;100030.38;4987398;28;20056;-64
2021/11/13 12:29:08;;;;;;;7.45;4.15;;;;;;;9.41;70.38;100031.09;4987017;28;20054;-65
2021/11/13 12:31:57;;;;;;;9.48;5.10;;;;;;;9.43;69.73;100037.97;4985590;28;20069;-65
2021/11/13 12:34:54;;;;;;;7.05;3.95;;;;;;;9.72;69.30;100039.81;4985947;28;20049;-67
2021/11/13 12:37:40;;;;;;;9.55;4.30;;;;;;;10.15;68.26;100033.91;4987101;28;20050;-65
2021/11/13 12:40:39;;;;;;;7.05;4.10;;;;;;;10.38;67.02;100039.75;4986771;28;20061;-65
2021/11/13 12:43:24;;;;;;;7.15;4.38;;;;;;;10.63;65.44;100031.03;4987579;28;20053;-66
2021/11/13 12:46:24;;;;;;;6.60;4.70;;;;;;;10.89;64.49;100043.72;4987152;28;20434;-66
2021/11/13 12:49:29;;;;;;;6.88;4.10;;;;;;;10.91;64.57;100045.28;4986640;28;20056;-64
2021/11/13 12:52:28;;;;;;;8.93;4.57;;;;;;;10.77;65.37;100048.47;4988579;28;20053;-65
2021/11/13 12:55:21;;;;;;;9.70;4.78;;;;;;;10.20;66.44;100059.31;4986015;28;20160;-66